Time,TemperatureF,DewpointF,PressureIn,WindDirection,WindDirectionDegrees,WindSpeedMPH,WindSpeedGustMPH,Humidity,HourlyPrecipIn,Conditions,Clouds,dailyrainin,SoftwareType,DateUTC
2013-12-21 00:02:00,19.0,18.0,-100.00,ESE,102,3.0,6.0,96,0.00,,,-99.99,,2013-12-21 07:02:00,
2013-12-21 00:22:00,19.0,18.0,-100.00,North,357,2.0,2.0,96,0.00,,,-99.99,,2013-12-21 07:22:00,
2013-12-21 00:32:00,19.0,18.0,-100.00,North,357,2.0,2.0,96,0.00,,,-99.99,,2013-12-21 07:32:00,
2013-12-21 00:53:00,19.0,18.0,-100.00,NW,325,0.0,1.0,96,0.00,,,-99.99,,2013-12-21 07:53:00,
2013-12-21 01:02:00,19.0,18.0,-100.00,NW,325,0.0,1.0,96,0.00,,,-99.99,,2013-12-21 08:02:00,
2013-12-21 01:21:00,18.0,17.0,-100.00,SSW,202,0.0,1.0,95,0.00,,,-99.99,,2013-12-21 08:21:00,
2013-12-21 01:32:00,18.0,17.0,-100.00,SSW,202,0.0,1.0,95,0.00,,,-99.99,,2013-12-21 08:32:00,
2013-12-21 01:53:00,17.0,16.0,-100.00,WNW,291,0.0,1.0,95,0.00,,,-99.99,,2013-12-21 08:53:00,
2013-12-21 02:02:00,17.0,16.0,-100.00,WNW,291,0.0,1.0,95,0.00,,,-99.99,,2013-12-21 09:02:00,
2013-12-21 02:22:00,17.0,16.0,-100.00,WSW,258,0.0,0.0,95,0.02,,,-99.99,,2013-12-21 09:22:00,
2013-12-21 02:33:00,17.0,16.0,-100.00,WSW,258,0.0,0.0,95,0.02,,,-99.99,,2013-12-21 09:33:00,
2013-12-21 02:54:00,17.0,16.0,-100.00,SE,124,0.0,0.0,95,0.00,,,-99.99,,2013-12-21 09:54:00,
2013-12-21 03:03:00,17.0,16.0,-100.00,SE,124,0.0,0.0,95,0.00,,,-99.99,,2013-12-21 10:03:00,
2013-12-21 03:23:00,18.0,16.0,-100.00,South,185,0.0,1.0,95,0.00,,,-99.99,,2013-12-21 10:23:00,
2013-12-21 03:33:00,18.0,16.0,-100.00,South,185,0.0,1.0,95,0.00,,,-99.99,,2013-12-21 10:33:00,
2013-12-21 03:53:00,17.0,16.0,-100.00,NNW,329,1.0,2.0,95,0.00,,,-99.99,,2013-12-21 10:53:00,
2013-12-21 04:02:00,17.0,16.0,-100.00,NNW,329,1.0,2.0,95,0.00,,,-99.99,,2013-12-21 11:02:00,
2013-12-21 04:22:00,17.0,16.0,-100.00,ESE,104,0.0,1.0,95,0.00,,,-99.99,,2013-12-21 11:22:00,
2013-12-21 04:33:00,17.0,16.0,-100.00,ESE,104,0.0,1.0,95,0.00,,,-99.99,,2013-12-21 11:33:00,
2013-12-21 04:53:00,17.0,16.0,-100.00,NW,326,2.0,2.0,95,0.00,,,-99.99,,2013-12-21 11:53:00,
2013-12-21 05:02:00,17.0,16.0,-100.00,NW,326,2.0,2.0,95,0.00,,,-99.99,,2013-12-21 12:02:00,
2013-12-21 05:21:00,17.0,16.0,-100.00,South,188,0.0,0.0,95,0.00,,,-99.99,,2013-12-21 12:21:00,
2013-12-21 05:32:00,17.0,16.0,-100.00,South,188,0.0,0.0,95,0.00,,,-99.99,,2013-12-21 12:32:00,
2013-12-21 05:52:00,17.0,16.0,-100.00,East,100,0.0,0.0,95,0.00,,,-99.99,,2013-12-21 12:52:00,
2013-12-21 06:02:00,17.0,16.0,-100.00,East,100,0.0,0.0,95,0.00,,,-99.99,,2013-12-21 13:02:00,
2013-12-21 06:21:00,17.0,16.0,-100.00,ESE,104,1.0,2.0,95,0.00,,,-99.99,,2013-12-21 13:21:00,
2013-12-21 06:32:00,17.0,16.0,-100.00,ESE,104,1.0,2.0,95,0.00,,,-99.99,,2013-12-21 13:32:00,
2013-12-21 06:52:00,16.0,15.0,-100.00,East,96,0.0,1.0,95,0.00,,,-99.99,,2013-12-21 13:52:00,
2013-12-21 07:02:00,16.0,15.0,-100.00,East,96,0.0,1.0,95,0.00,,,-99.99,,2013-12-21 14:02:00,
2013-12-21 07:22:00,16.0,14.0,-100.00,East,96,0.0,1.0,95,0.00,,,-99.99,,2013-12-21 14:22:00,
2013-12-21 07:32:00,16.0,14.0,-100.00,East,96,0.0,1.0,95,0.00,,,-99.99,,2013-12-21 14:32:00,
2013-12-21 07:53:00,16.0,15.0,-100.00,ENE,69,0.0,0.0,95,0.00,,,-99.99,,2013-12-21 14:53:00,
2013-12-21 08:02:00,16.0,15.0,-100.00,ENE,69,0.0,0.0,95,0.00,,,-99.99,,2013-12-21 15:02:00,
2013-12-21 08:21:00,17.0,16.0,-100.00,ENE,64,0.0,1.0,95,0.00,,,-99.99,,2013-12-21 15:21:00,
2013-12-21 08:33:00,17.0,16.0,-100.00,ENE,64,0.0,1.0,95,0.00,,,-99.99,,2013-12-21 15:33:00,
2013-12-21 08:53:00,17.0,15.0,-100.00,ENE,73,0.0,1.0,95,0.00,,,-99.99,,2013-12-21 15:53:00,
2013-12-21 09:03:00,17.0,15.0,-100.00,ENE,73,0.0,1.0,95,0.00,,,-99.99,,2013-12-21 16:03:00,
2013-12-21 09:22:00,15.0,14.0,-100.00,East,97,0.0,1.0,94,0.00,,,-99.99,,2013-12-21 16:22:00,
2013-12-21 09:33:00,15.0,14.0,-100.00,East,97,0.0,1.0,94,0.00,,,-99.99,,2013-12-21 16:33:00,
2013-12-21 09:53:00,15.0,13.0,-100.00,ESE,107,2.0,4.0,94,0.00,,,-99.99,,2013-12-21 16:53:00,
2013-12-21 10:03:00,15.0,13.0,-100.00,ESE,107,2.0,4.0,94,0.00,,,-99.99,,2013-12-21 17:03:00,
2013-12-21 10:22:00,15.0,14.0,-100.00,ESE,110,2.0,3.0,95,0.00,,,-99.99,,2013-12-21 17:22:00,
2013-12-21 10:33:00,15.0,14.0,-100.00,ESE,110,2.0,3.0,95,0.00,,,-99.99,,2013-12-21 17:33:00,
2013-12-21 10:53:00,18.0,17.0,-100.00,North,357,1.0,2.0,96,0.00,,,-99.99,,2013-12-21 17:53:00,
2013-12-21 11:02:00,18.0,17.0,-100.00,North,357,1.0,2.0,96,0.00,,,-99.99,,2013-12-21 18:02:00,
2013-12-21 11:22:00,19.0,18.0,-100.00,NNW,333,2.0,4.0,96,0.00,,,-99.99,,2013-12-21 18:22:00,
2013-12-21 11:32:00,19.0,18.0,-100.00,NNW,333,2.0,4.0,96,0.00,,,-99.99,,2013-12-21 18:32:00,
2013-12-21 11:52:00,22.0,21.0,-100.00,ESE,102,1.0,2.0,96,0.00,,,-99.99,,2013-12-21 18:52:00,
2013-12-21 12:02:00,22.0,21.0,-100.00,ESE,102,1.0,2.0,96,0.00,,,-99.99,,2013-12-21 19:02:00,
2013-12-21 12:21:00,25.0,23.0,-100.00,North,349,2.0,4.0,93,0.00,,,-99.99,,2013-12-21 19:21:00,
2013-12-21 12:32:00,25.0,23.0,-100.00,North,349,2.0,4.0,93,0.00,,,-99.99,,2013-12-21 19:32:00,
2013-12-21 12:52:00,23.0,20.0,-100.00,WNW,285,1.0,2.0,90,0.00,,,0.98,,2013-12-21 19:52:00,
2013-12-21 13:02:00,23.0,20.0,-100.00,WNW,285,1.0,2.0,90,0.00,,,0.98,,2013-12-21 20:02:00,
2013-12-21 13:23:00,28.0,25.0,-100.00,South,178,0.0,1.0,91,0.00,,,0.98,,2013-12-21 20:23:00,
2013-12-21 13:32:00,28.0,25.0,-100.00,South,178,0.0,1.0,91,0.00,,,0.98,,2013-12-21 20:32:00,
2013-12-21 13:52:00,26.0,23.0,-100.00,NW,309,2.0,4.0,89,0.00,,,0.98,,2013-12-21 20:52:00,
2013-12-21 14:02:00,26.0,23.0,-100.00,NW,309,2.0,4.0,89,0.00,,,0.98,,2013-12-21 21:02:00,
2013-12-21 14:11:00,26.0,23.0,-100.00,NW,309,2.0,4.0,89,0.00,,,0.98,,2013-12-21 21:11:00,
2013-12-21 14:43:00,31.0,28.0,-100.00,South,181,0.0,0.0,89,0.00,,,0.94,,2013-12-21 21:43:00,
2013-12-21 15:12:00,29.0,26.0,-100.00,WSW,251,1.0,2.0,88,0.00,,,0.91,,2013-12-21 22:12:00,
2013-12-21 15:42:00,29.0,26.0,-100.00,NW,318,2.0,3.0,88,0.00,,,0.91,,2013-12-21 22:42:00,
2013-12-21 16:12:00,29.0,27.0,-100.00,WSW,240,0.0,0.0,90,0.00,,,0.89,,2013-12-21 23:12:00,
2013-12-21 16:43:00,29.0,26.0,-100.00,SW,234,0.0,0.0,90,0.00,,,0.86,,2013-12-21 23:43:00,
2013-12-21 17:11:00,28.0,26.0,-100.00,East,88,0.0,1.0,91,0.00,,,0.84,,2013-12-22 00:11:00,
2013-12-21 17:42:00,28.0,26.0,-100.00,ESE,110,2.0,2.0,93,0.00,,,0.77,,2013-12-22 00:42:00,
2013-12-21 18:12:00,27.0,26.0,-100.00,SE,124,0.0,0.0,94,0.00,,,0.61,,2013-12-22 01:12:00,
2013-12-21 18:42:00,27.0,25.0,-100.00,East,100,2.0,3.0,95,0.00,,,0.45,,2013-12-22 01:42:00,
2013-12-21 19:12:00,27.0,26.0,-100.00,ESE,102,2.0,3.0,95,0.00,,,0.35,,2013-12-22 02:12:00,
2013-12-21 19:42:00,26.0,24.0,-100.00,NE,52,0.0,1.0,94,0.00,,,0.20,,2013-12-22 02:42:00,
2013-12-21 20:11:00,27.0,25.0,-100.00,East,90,2.0,4.0,94,0.00,,,0.18,,2013-12-22 03:11:00,
2013-12-21 20:43:00,27.0,25.0,-100.00,ESE,106,4.0,5.0,93,0.00,,,0.18,,2013-12-22 03:43:00,
2013-12-21 21:02:00,-999.0,-99.9,-100.00,ESE,107,3.0,4.0,-999,0.00,,,0.18,,2013-12-22 04:02:00,
2013-12-21 21:13:00,27.0,25.0,-100.00,ESE,107,3.0,4.0,92,0.00,,,0.18,,2013-12-22 04:13:00,
2013-12-21 21:43:00,27.0,25.0,-100.00,ESE,110,4.0,6.0,92,0.00,,,0.18,,2013-12-22 04:43:00,
2013-12-21 21:53:00,27.0,25.0,-100.00,ESE,110,4.0,6.0,92,0.00,,,0.18,,2013-12-22 04:53:00,
2013-12-21 22:12:00,27.0,25.0,-100.00,ESE,116,3.0,4.0,92,0.00,,,0.18,,2013-12-22 05:12:00,
2013-12-21 22:43:00,27.0,25.0,-100.00,SSE,158,1.0,1.0,92,0.00,,,0.14,,2013-12-22 05:43:00,
2013-12-21 23:12:00,27.0,25.0,-100.00,ESE,113,3.0,4.0,92,0.00,,,0.09,,2013-12-22 06:12:00,
2013-12-21 23:22:00,27.0,25.0,-100.00,ESE,113,3.0,4.0,92,0.00,,,0.09,,2013-12-22 06:22:00,
2013-12-21 23:42:00,27.0,25.0,-100.00,South,171,2.0,4.0,92,0.00,,,0.07,,2013-12-22 06:42:00,